Portada
METAR-TAF:

METAR-TAF

Aeropuertos :

Aeródromo Henderson

Midway, Estados Unidos

latitud: 28-13N, longitud: 177-22W, altitud: 4 m

Observación

El informe se hizo hace 25 minutos, a las 11:56 UTC
Viento 12 kt del noreste
Temperatura 17°C
Humedad 68%
Presión 1024 hPa
Visibilidad: 16.1 km
Cielo cubierto a una altura de 3400 ft

METAR: PMDY 151156Z AUTO 05012KT 10SM OVC034 17/11 A3025 RMK AO2 SLP245 T01720111 10178 20172 58002

Hora: 02:21 (12:21 UTC)

Pronóstico

El informe se hizo hace 43 minutos, a las 11:38 UTC
Pronóstico válido del 15 a las 12 UTC al 16 a las 12 UTC
Viento 12 kt del noreste con ráfagas de 18 kt
Visibilidad: 10 km
Cielo nuboso a una altura de 3500 ft
A partir de las 15 a las 2100 UTC
Viento 12 kt del este
Visibilidad: 10 km
Nubes dispersas a una altura de 3500 ft
Nubes dispersas a una altura de 5000 ft

TAF: PMDY 151138Z 1512/1612 05012G18KT P6SM BKN035 FM152100 08012KT P6SM SCT035 SCT050

Observaciones y pronósticos meteorológicos de más de 4000 aeropuertos (mensajes METAR y TAF).

Los puntos amarillos y rojos representan las estaciones disponibles.

Ponga el ratón en el punto deseado para ver el nombre de la estación.

Haga clic para ver las observaciones y los pronósticos meteorológicos.

Para cambiar el mapa : haga clic en los botones verdes con una cruz de color negro para hacer un zoom, en el botón verde con un guión para alejar o en las flechas verdes para mapas adyacentes.


METAR-TAF: